sim
Sign-in with your pilot id or email,
or register
Callsign
Passwort

Schedule Details

Flight Number: EWG4370
Departure: Salzburg Airport (LOWS) at 09:45
Arrival: Fuerteventura Airport (GCFV) at 14:35
Route: Eurowings Passenger Schedule. Enter filed route here before submitting Pirep.

Weather Information
Getting current METAR information for LOWS 160250Z AUTO 15010KT 9999 NSC 03/M03 Q1029
Getting current METAR information for GCFV 160230Z AUTO 28005KT 9999 NCD 13/10 Q1018

Schedule Frequency

Route Map